sensor_id;sensor_type;location;lat;lon;timestamp;P1;durP1;ratioP1;P2;durP2;ratioP2
32786;SDS011;19139;49.372;8.580;2023-04-03T00:01:03;1.30;;;1.20;;
32786;SDS011;19139;49.372;8.580;2023-04-03T00:03:31;1.53;;;1.43;;
32786;SDS011;19139;49.372;8.580;2023-04-03T00:05:57;1.40;;;1.23;;
32786;SDS011;19139;49.372;8.580;2023-04-03T00:08:24;1.67;;;1.40;;
32786;SDS011;19139;49.372;8.580;2023-04-03T00:10:51;1.53;;;1.10;;
32786;SDS011;19139;49.372;8.580;2023-04-03T00:13:18;1.63;;;1.20;;
32786;SDS011;19139;49.372;8.580;2023-04-03T00:15:44;1.53;;;1.13;;
32786;SDS011;19139;49.372;8.580;2023-04-03T00:18:11;1.60;;;1.37;;
32786;SDS011;19139;49.372;8.580;2023-04-03T00:20:38;1.60;;;1.50;;
32786;SDS011;19139;49.372;8.580;2023-04-03T00:23:05;1.20;;;1.10;;
32786;SDS011;19139;49.372;8.580;2023-04-03T00:25:32;1.50;;;1.00;;
32786;SDS011;19139;49.372;8.580;2023-04-03T00:27:59;1.93;;;1.50;;
32786;SDS011;19139;49.372;8.580;2023-04-03T00:30:25;1.50;;;1.10;;
32786;SDS011;19139;49.372;8.580;2023-04-03T00:32:52;1.57;;;1.27;;
32786;SDS011;19139;49.372;8.580;2023-04-03T00:35:20;1.40;;;1.30;;
32786;SDS011;19139;49.372;8.580;2023-04-03T00:37:48;2.23;;;1.00;;
32786;SDS011;19139;49.372;8.580;2023-04-03T00:40:16;1.40;;;1.30;;
32786;SDS011;19139;49.372;8.580;2023-04-03T00:42:44;1.50;;;1.20;;
32786;SDS011;19139;49.372;8.580;2023-04-03T00:45:29;1.73;;;1.43;;
32786;SDS011;19139;49.372;8.580;2023-04-03T00:48:02;1.30;;;1.20;;
32786;SDS011;19139;49.372;8.580;2023-04-03T00:50:32;1.20;;;1.10;;
32786;SDS011;19139;49.372;8.580;2023-04-03T00:53:02;1.67;;;1.57;;
32786;SDS011;19139;49.372;8.580;2023-04-03T00:55:30;1.43;;;1.33;;
32786;SDS011;19139;49.372;8.580;2023-04-03T00:57:58;1.50;;;1.40;;
32786;SDS011;19139;49.372;8.580;2023-04-03T01:00:26;1.33;;;1.20;;
32786;SDS011;19139;49.372;8.580;2023-04-03T01:02:53;1.57;;;1.43;;
32786;SDS011;19139;49.372;8.580;2023-04-03T01:05:21;1.20;;;1.10;;
32786;SDS011;19139;49.372;8.580;2023-04-03T01:07:48;1.77;;;1.40;;
32786;SDS011;19139;49.372;8.580;2023-04-03T01:10:17;1.47;;;1.10;;
32786;SDS011;19139;49.372;8.580;2023-04-03T01:12:47;1.40;;;1.30;;
32786;SDS011;19139;49.372;8.580;2023-04-03T01:15:17;1.20;;;1.10;;
32786;SDS011;19139;49.372;8.580;2023-04-03T01:25:37;1.77;;;1.10;;
32786;SDS011;19139;49.372;8.580;2023-04-03T01:28:11;1.40;;;1.03;;
32786;SDS011;19139;49.372;8.580;2023-04-03T01:31:08;1.20;;;1.10;;
32786;SDS011;19139;49.372;8.580;2023-04-03T01:34:03;2.47;;;1.20;;
32786;SDS011;19139;49.372;8.580;2023-04-03T01:36:30;1.20;;;1.10;;
32786;SDS011;19139;49.372;8.580;2023-04-03T01:38:58;1.33;;;1.23;;
32786;SDS011;19139;49.372;8.580;2023-04-03T01:41:25;2.00;;;1.23;;
32786;SDS011;19139;49.372;8.580;2023-04-03T01:43:53;2.70;;;1.67;;
32786;SDS011;19139;49.372;8.580;2023-04-03T01:46:20;1.60;;;1.17;;
32786;SDS011;19139;49.372;8.580;2023-04-03T01:48:47;1.37;;;1.10;;
32786;SDS011;19139;49.372;8.580;2023-04-03T01:51:14;1.53;;;1.40;;
32786;SDS011;19139;49.372;8.580;2023-04-03T01:53:41;1.43;;;1.33;;
32786;SDS011;19139;49.372;8.580;2023-04-03T01:56:08;2.37;;;1.10;;
32786;SDS011;19139;49.372;8.580;2023-04-03T01:58:34;1.20;;;1.10;;
32786;SDS011;19139;49.372;8.580;2023-04-03T02:01:01;1.30;;;1.20;;
32786;SDS011;19139;49.372;8.580;2023-04-03T02:03:28;1.43;;;1.17;;
32786;SDS011;19139;49.372;8.580;2023-04-03T02:05:54;1.60;;;1.03;;
32786;SDS011;19139;49.372;8.580;2023-04-03T02:08:21;1.60;;;1.17;;
32786;SDS011;19139;49.372;8.580;2023-04-03T02:10:48;2.17;;;1.10;;
32786;SDS011;19139;49.372;8.580;2023-04-03T02:13:16;1.33;;;1.20;;
32786;SDS011;19139;49.372;8.580;2023-04-03T02:15:42;0.83;;;0.77;;
32786;SDS011;19139;49.372;8.580;2023-04-03T02:18:09;1.47;;;1.07;;
32786;SDS011;19139;49.372;8.580;2023-04-03T02:20:36;1.83;;;1.23;;
32786;SDS011;19139;49.372;8.580;2023-04-03T02:23:03;1.50;;;1.30;;
32786;SDS011;19139;49.372;8.580;2023-04-03T02:25:30;2.03;;;1.17;;
32786;SDS011;19139;49.372;8.580;2023-04-03T02:27:57;1.27;;;1.17;;
32786;SDS011;19139;49.372;8.580;2023-04-03T02:30:24;1.83;;;1.17;;
32786;SDS011;19139;49.372;8.580;2023-04-03T02:32:52;1.30;;;1.10;;
32786;SDS011;19139;49.372;8.580;2023-04-03T02:35:19;1.30;;;1.10;;
32786;SDS011;19139;49.372;8.580;2023-04-03T02:37:46;1.37;;;1.27;;
32786;SDS011;19139;49.372;8.580;2023-04-03T02:40:13;0.93;;;0.80;;
32786;SDS011;19139;49.372;8.580;2023-04-03T02:42:40;1.47;;;1.20;;
32786;SDS011;19139;49.372;8.580;2023-04-03T02:45:06;1.20;;;1.00;;
32786;SDS011;19139;49.372;8.580;2023-04-03T02:47:33;1.50;;;1.33;;
32786;SDS011;19139;49.372;8.580;2023-04-03T02:50:00;0.87;;;0.67;;
32786;SDS011;19139;49.372;8.580;2023-04-03T02:52:27;1.20;;;1.10;;
32786;SDS011;19139;49.372;8.580;2023-04-03T02:54:53;2.20;;;1.40;;
32786;SDS011;19139;49.372;8.580;2023-04-03T02:57:20;1.40;;;1.30;;
32786;SDS011;19139;49.372;8.580;2023-04-03T02:59:47;0.90;;;0.90;;
32786;SDS011;19139;49.372;8.580;2023-04-03T03:02:13;1.07;;;0.80;;
32786;SDS011;19139;49.372;8.580;2023-04-03T03:04:40;1.33;;;1.23;;
32786;SDS011;19139;49.372;8.580;2023-04-03T03:07:06;1.60;;;1.00;;
32786;SDS011;19139;49.372;8.580;2023-04-03T03:09:33;1.03;;;0.87;;
32786;SDS011;19139;49.372;8.580;2023-04-03T03:12:00;1.03;;;0.93;;
32786;SDS011;19139;49.372;8.580;2023-04-03T03:14:26;2.47;;;1.43;;
32786;SDS011;19139;49.372;8.580;2023-04-03T03:16:53;1.03;;;0.80;;
32786;SDS011;19139;49.372;8.580;2023-04-03T03:19:20;1.53;;;0.90;;
32786;SDS011;19139;49.372;8.580;2023-04-03T03:21:46;0.80;;;0.70;;
32786;SDS011;19139;49.372;8.580;2023-04-03T03:24:13;1.63;;;1.10;;
32786;SDS011;19139;49.372;8.580;2023-04-03T03:26:41;2.37;;;0.90;;
32786;SDS011;19139;49.372;8.580;2023-04-03T03:29:08;1.10;;;1.00;;
32786;SDS011;19139;49.372;8.580;2023-04-03T03:31:35;1.20;;;1.10;;
32786;SDS011;19139;49.372;8.580;2023-04-03T03:34:02;1.17;;;1.03;;
32786;SDS011;19139;49.372;8.580;2023-04-03T03:36:29;1.00;;;0.77;;
32786;SDS011;19139;49.372;8.580;2023-04-03T03:38:55;1.73;;;0.97;;
32786;SDS011;19139;49.372;8.580;2023-04-03T03:41:22;1.50;;;1.10;;
32786;SDS011;19139;49.372;8.580;2023-04-03T03:43:49;0.77;;;0.70;;
32786;SDS011;19139;49.372;8.580;2023-04-03T03:46:15;1.20;;;1.10;;
32786;SDS011;19139;49.372;8.580;2023-04-03T03:48:42;1.33;;;1.00;;
32786;SDS011;19139;49.372;8.580;2023-04-03T03:51:08;1.23;;;1.13;;
32786;SDS011;19139;49.372;8.580;2023-04-03T03:53:35;0.60;;;0.50;;
32786;SDS011;19139;49.372;8.580;2023-04-03T03:56:03;1.17;;;0.97;;
32786;SDS011;19139;49.372;8.580;2023-04-03T03:58:30;1.23;;;1.13;;
32786;SDS011;19139;49.372;8.580;2023-04-03T04:01:02;1.30;;;1.07;;
32786;SDS011;19139;49.372;8.580;2023-04-03T04:03:29;1.37;;;1.10;;
32786;SDS011;19139;49.372;8.580;2023-04-03T04:05:56;1.10;;;1.00;;
32786;SDS011;19139;49.372;8.580;2023-04-03T04:08:23;1.37;;;0.90;;
32786;SDS011;19139;49.372;8.580;2023-04-03T04:10:50;0.80;;;0.70;;
32786;SDS011;19139;49.372;8.580;2023-04-03T04:13:17;0.93;;;0.83;;
32786;SDS011;19139;49.372;8.580;2023-04-03T04:15:43;1.43;;;0.90;;
32786;SDS011;19139;49.372;8.580;2023-04-03T04:18:10;1.30;;;1.20;;
32786;SDS011;19139;49.372;8.580;2023-04-03T04:20:37;1.00;;;0.80;;
32786;SDS011;19139;49.372;8.580;2023-04-03T04:23:03;1.37;;;1.07;;
32786;SDS011;19139;49.372;8.580;2023-04-03T04:25:30;1.07;;;0.70;;
32786;SDS011;19139;49.372;8.580;2023-04-03T04:27:57;0.80;;;0.50;;
32786;SDS011;19139;49.372;8.580;2023-04-03T04:30:23;0.83;;;0.80;;
32786;SDS011;19139;49.372;8.580;2023-04-03T04:32:50;1.23;;;0.90;;
32786;SDS011;19139;49.372;8.580;2023-04-03T04:35:17;0.90;;;0.70;;
32786;SDS011;19139;49.372;8.580;2023-04-03T04:37:43;1.50;;;0.90;;
32786;SDS011;19139;49.372;8.580;2023-04-03T04:40:10;1.20;;;1.00;;
32786;SDS011;19139;49.372;8.580;2023-04-03T04:42:37;1.10;;;0.83;;
32786;SDS011;19139;49.372;8.580;2023-04-03T04:45:04;1.10;;;0.87;;
32786;SDS011;19139;49.372;8.580;2023-04-03T04:47:31;0.90;;;0.73;;
32786;SDS011;19139;49.372;8.580;2023-04-03T04:49:57;1.00;;;0.80;;
32786;SDS011;19139;49.372;8.580;2023-04-03T04:52:24;1.53;;;0.90;;
32786;SDS011;19139;49.372;8.580;2023-04-03T04:54:51;0.80;;;0.70;;
32786;SDS011;19139;49.372;8.580;2023-04-03T04:57:17;1.27;;;0.80;;
32786;SDS011;19139;49.372;8.580;2023-04-03T04:59:44;1.00;;;0.90;;
32786;SDS011;19139;49.372;8.580;2023-04-03T05:02:10;0.90;;;0.67;;
32786;SDS011;19139;49.372;8.580;2023-04-03T05:04:37;1.77;;;0.80;;
32786;SDS011;19139;49.372;8.580;2023-04-03T05:07:04;1.03;;;0.70;;
32786;SDS011;19139;49.372;8.580;2023-04-03T05:09:31;0.80;;;0.70;;
32786;SDS011;19139;49.372;8.580;2023-04-03T05:11:57;1.17;;;0.90;;
32786;SDS011;19139;49.372;8.580;2023-04-03T05:14:24;0.90;;;0.90;;
32786;SDS011;19139;49.372;8.580;2023-04-03T05:16:51;0.90;;;0.70;;
32786;SDS011;19139;49.372;8.580;2023-04-03T05:19:20;0.80;;;0.67;;
32786;SDS011;19139;49.372;8.580;2023-04-03T05:21:47;1.40;;;0.73;;
32786;SDS011;19139;49.372;8.580;2023-04-03T05:24:14;1.40;;;0.90;;
32786;SDS011;19139;49.372;8.580;2023-04-03T05:26:42;1.10;;;0.70;;
32786;SDS011;19139;49.372;8.580;2023-04-03T05:29:09;1.00;;;0.90;;
32786;SDS011;19139;49.372;8.580;2023-04-03T05:31:36;1.13;;;0.80;;
32786;SDS011;19139;49.372;8.580;2023-04-03T05:34:03;1.87;;;1.20;;
32786;SDS011;19139;49.372;8.580;2023-04-03T05:36:30;0.80;;;0.80;;
32786;SDS011;19139;49.372;8.580;2023-04-03T05:38:57;1.10;;;1.00;;
32786;SDS011;19139;49.372;8.580;2023-04-03T05:41:23;1.30;;;0.70;;
32786;SDS011;19139;49.372;8.580;2023-04-03T05:43:50;0.87;;;0.87;;
32786;SDS011;19139;49.372;8.580;2023-04-03T05:46:18;1.20;;;1.07;;
32786;SDS011;19139;49.372;8.580;2023-04-03T05:48:46;1.57;;;1.07;;
32786;SDS011;19139;49.372;8.580;2023-04-03T05:51:14;1.30;;;0.93;;
32786;SDS011;19139;49.372;8.580;2023-04-03T05:53:43;1.10;;;1.00;;
32786;SDS011;19139;49.372;8.580;2023-04-03T05:56:10;1.70;;;0.90;;
32786;SDS011;19139;49.372;8.580;2023-04-03T05:58:37;1.00;;;0.90;;
32786;SDS011;19139;49.372;8.580;2023-04-03T06:01:04;1.17;;;1.03;;
32786;SDS011;19139;49.372;8.580;2023-04-03T06:03:31;1.40;;;0.90;;
32786;SDS011;19139;49.372;8.580;2023-04-03T06:05:58;0.80;;;0.70;;
32786;SDS011;19139;49.372;8.580;2023-04-03T06:08:25;1.40;;;0.90;;
32786;SDS011;19139;49.372;8.580;2023-04-03T06:10:52;0.97;;;0.77;;
32786;SDS011;19139;49.372;8.580;2023-04-03T06:13:18;1.20;;;1.00;;
32786;SDS011;19139;49.372;8.580;2023-04-03T06:15:45;1.10;;;0.80;;
32786;SDS011;19139;49.372;8.580;2023-04-03T06:18:12;0.73;;;0.70;;
32786;SDS011;19139;49.372;8.580;2023-04-03T06:20:39;0.87;;;0.87;;
32786;SDS011;19139;49.372;8.580;2023-04-03T06:23:06;1.20;;;0.73;;
32786;SDS011;19139;49.372;8.580;2023-04-03T06:25:33;1.00;;;0.90;;
32786;SDS011;19139;49.372;8.580;2023-04-03T06:28:00;1.27;;;1.13;;
32786;SDS011;19139;49.372;8.580;2023-04-03T06:30:27;0.90;;;0.60;;
32786;SDS011;19139;49.372;8.580;2023-04-03T06:32:53;1.53;;;0.70;;
32786;SDS011;19139;49.372;8.580;2023-04-03T06:35:21;1.30;;;1.00;;
32786;SDS011;19139;49.372;8.580;2023-04-03T06:37:49;1.00;;;0.90;;
32786;SDS011;19139;49.372;8.580;2023-04-03T06:40:21;1.20;;;0.60;;
32786;SDS011;19139;49.372;8.580;2023-04-03T06:42:49;0.83;;;0.70;;
32786;SDS011;19139;49.372;8.580;2023-04-03T06:45:16;0.97;;;0.77;;
32786;SDS011;19139;49.372;8.580;2023-04-03T06:47:43;0.97;;;0.77;;
32786;SDS011;19139;49.372;8.580;2023-04-03T06:50:11;1.27;;;0.73;;
32786;SDS011;19139;49.372;8.580;2023-04-03T06:52:40;0.70;;;0.70;;
32786;SDS011;19139;49.372;8.580;2023-04-03T06:55:07;2.40;;;1.70;;
32786;SDS011;19139;49.372;8.580;2023-04-03T06:57:35;2.20;;;1.70;;
32786;SDS011;19139;49.372;8.580;2023-04-03T07:00:03;4.23;;;2.77;;
32786;SDS011;19139;49.372;8.580;2023-04-03T07:02:31;4.27;;;1.60;;
32786;SDS011;19139;49.372;8.580;2023-04-03T07:04:58;4.50;;;2.27;;
32786;SDS011;19139;49.372;8.580;2023-04-03T07:07:25;3.47;;;2.10;;
32786;SDS011;19139;49.372;8.580;2023-04-03T07:09:51;2.73;;;1.83;;
32786;SDS011;19139;49.372;8.580;2023-04-03T07:12:18;4.30;;;2.03;;
32786;SDS011;19139;49.372;8.580;2023-04-03T07:14:44;3.33;;;1.77;;
32786;SDS011;19139;49.372;8.580;2023-04-03T07:17:11;2.73;;;1.50;;
32786;SDS011;19139;49.372;8.580;2023-04-03T07:19:38;2.53;;;1.60;;
32786;SDS011;19139;49.372;8.580;2023-04-03T07:22:05;2.03;;;1.40;;
32786;SDS011;19139;49.372;8.580;2023-04-03T07:24:32;2.50;;;1.87;;
32786;SDS011;19139;49.372;8.580;2023-04-03T07:26:59;2.03;;;1.40;;
32786;SDS011;19139;49.372;8.580;2023-04-03T07:29:26;2.97;;;1.47;;
32786;SDS011;19139;49.372;8.580;2023-04-03T07:31:53;2.53;;;1.70;;
32786;SDS011;19139;49.372;8.580;2023-04-03T07:34:21;2.73;;;1.20;;
32786;SDS011;19139;49.372;8.580;2023-04-03T07:36:48;2.80;;;1.57;;
32786;SDS011;19139;49.372;8.580;2023-04-03T07:39:14;3.17;;;1.33;;
32786;SDS011;19139;49.372;8.580;2023-04-03T07:41:41;2.73;;;1.30;;
32786;SDS011;19139;49.372;8.580;2023-04-03T07:44:07;2.97;;;1.63;;
32786;SDS011;19139;49.372;8.580;2023-04-03T07:46:36;2.57;;;1.33;;
32786;SDS011;19139;49.372;8.580;2023-04-03T07:49:03;6.37;;;2.70;;
32786;SDS011;19139;49.372;8.580;2023-04-03T07:51:29;3.37;;;2.07;;
32786;SDS011;19139;49.372;8.580;2023-04-03T07:53:56;3.83;;;1.57;;
32786;SDS011;19139;49.372;8.580;2023-04-03T07:56:23;3.20;;;1.50;;
32786;SDS011;19139;49.372;8.580;2023-04-03T07:58:51;2.43;;;1.40;;
32786;SDS011;19139;49.372;8.580;2023-04-03T08:01:18;3.50;;;1.40;;
32786;SDS011;19139;49.372;8.580;2023-04-03T08:03:44;6.20;;;1.47;;
32786;SDS011;19139;49.372;8.580;2023-04-03T08:06:11;3.40;;;1.37;;
32786;SDS011;19139;49.372;8.580;2023-04-03T08:08:42;3.77;;;1.60;;
32786;SDS011;19139;49.372;8.580;2023-04-03T08:11:09;4.87;;;1.60;;
32786;SDS011;19139;49.372;8.580;2023-04-03T08:13:37;3.33;;;1.60;;
32786;SDS011;19139;49.372;8.580;2023-04-03T08:16:08;3.47;;;1.33;;
32786;SDS011;19139;49.372;8.580;2023-04-03T08:18:36;4.30;;;1.67;;
32786;SDS011;19139;49.372;8.580;2023-04-03T08:21:06;4.53;;;1.67;;
32786;SDS011;19139;49.372;8.580;2023-04-03T08:23:34;3.90;;;1.73;;
32786;SDS011;19139;49.372;8.580;2023-04-03T08:26:34;7.97;;;2.10;;
32786;SDS011;19139;49.372;8.580;2023-04-03T08:28:53;10.93;;;3.33;;
32786;SDS011;19139;49.372;8.580;2023-04-03T08:31:20;6.77;;;2.10;;
32786;SDS011;19139;49.372;8.580;2023-04-03T08:33:47;3.80;;;1.87;;
32786;SDS011;19139;49.372;8.580;2023-04-03T08:36:24;6.87;;;1.87;;
32786;SDS011;19139;49.372;8.580;2023-04-03T08:38:52;3.60;;;1.57;;
32786;SDS011;19139;49.372;8.580;2023-04-03T08:41:25;3.33;;;1.73;;
32786;SDS011;19139;49.372;8.580;2023-04-03T08:49:48;3.63;;;1.23;;
32786;SDS011;19139;49.372;8.580;2023-04-03T08:52:36;5.60;;;1.07;;
32786;SDS011;19139;49.372;8.580;2023-04-03T08:57:48;6.47;;;1.57;;
32786;SDS011;19139;49.372;8.580;2023-04-03T09:00:31;2.63;;;1.40;;
32786;SDS011;19139;49.372;8.580;2023-04-03T09:03:10;3.50;;;1.00;;
32786;SDS011;19139;49.372;8.580;2023-04-03T09:05:41;1.87;;;1.03;;
32786;SDS011;19139;49.372;8.580;2023-04-03T09:08:28;3.10;;;1.00;;
32786;SDS011;19139;49.372;8.580;2023-04-03T09:11:14;2.87;;;1.00;;
32786;SDS011;19139;49.372;8.580;2023-04-03T09:13:48;4.17;;;1.10;;
32786;SDS011;19139;49.372;8.580;2023-04-03T09:16:59;3.10;;;1.00;;
32786;SDS011;19139;49.372;8.580;2023-04-03T09:19:29;1.47;;;1.20;;
32786;SDS011;19139;49.372;8.580;2023-04-03T09:22:15;2.47;;;1.27;;
32786;SDS011;19139;49.372;8.580;2023-04-03T09:24:52;2.00;;;0.80;;
32786;SDS011;19139;49.372;8.580;2023-04-03T09:27:25;2.00;;;0.87;;
32786;SDS011;19139;49.372;8.580;2023-04-03T09:29:57;3.17;;;1.20;;
32786;SDS011;19139;49.372;8.580;2023-04-03T09:32:28;1.93;;;0.90;;
32786;SDS011;19139;49.372;8.580;2023-04-03T09:35:02;2.03;;;1.00;;
32786;SDS011;19139;49.372;8.580;2023-04-03T09:37:40;2.33;;;1.37;;
32786;SDS011;19139;49.372;8.580;2023-04-03T09:40:27;5.00;;;1.03;;
32786;SDS011;19139;49.372;8.580;2023-04-03T09:43:03;2.37;;;1.00;;
32786;SDS011;19139;49.372;8.580;2023-04-03T09:45:50;2.13;;;1.37;;
32786;SDS011;19139;49.372;8.580;2023-04-03T09:48:19;3.27;;;2.20;;
32786;SDS011;19139;49.372;8.580;2023-04-03T09:58:44;2.90;;;1.20;;
32786;SDS011;19139;49.372;8.580;2023-04-03T10:01:29;2.73;;;1.03;;
32786;SDS011;19139;49.372;8.580;2023-04-03T10:06:52;4.90;;;1.87;;
32786;SDS011;19139;49.372;8.580;2023-04-03T10:09:24;1.80;;;1.00;;
32786;SDS011;19139;49.372;8.580;2023-04-03T10:11:58;3.40;;;1.57;;
32786;SDS011;19139;49.372;8.580;2023-04-03T10:14:36;3.23;;;0.90;;
32786;SDS011;19139;49.372;8.580;2023-04-03T10:20:01;2.47;;;0.90;;
32786;SDS011;19139;49.372;8.580;2023-04-03T10:31:13;0.83;;;0.70;;
32786;SDS011;19139;49.372;8.580;2023-04-03T10:37:01;2.07;;;0.90;;
32786;SDS011;19139;49.372;8.580;2023-04-03T10:39:46;2.60;;;0.90;;
32786;SDS011;19139;49.372;8.580;2023-04-03T10:42:25;1.27;;;0.93;;
32786;SDS011;19139;49.372;8.580;2023-04-03T10:56:19;1.33;;;0.90;;
32786;SDS011;19139;49.372;8.580;2023-04-03T10:59:03;3.57;;;1.00;;
32786;SDS011;19139;49.372;8.580;2023-04-03T11:01:44;3.57;;;1.30;;
32786;SDS011;19139;49.372;8.580;2023-04-03T11:04:14;2.13;;;0.93;;
32786;SDS011;19139;49.372;8.580;2023-04-03T11:06:43;2.10;;;0.90;;
32786;SDS011;19139;49.372;8.580;2023-04-03T11:09:18;3.40;;;1.00;;
32786;SDS011;19139;49.372;8.580;2023-04-03T11:11:46;1.70;;;0.90;;
32786;SDS011;19139;49.372;8.580;2023-04-03T11:17:05;2.57;;;0.87;;
32786;SDS011;19139;49.372;8.580;2023-04-03T11:19:34;1.20;;;1.00;;
32786;SDS011;19139;49.372;8.580;2023-04-03T11:24:41;1.77;;;1.13;;
32786;SDS011;19139;49.372;8.580;2023-04-03T11:27:15;3.87;;;1.20;;
32786;SDS011;19139;49.372;8.580;2023-04-03T11:29:48;4.50;;;1.20;;
32786;SDS011;19139;49.372;8.580;2023-04-03T11:34:59;4.83;;;1.00;;
32786;SDS011;19139;49.372;8.580;2023-04-03T11:37:35;3.33;;;1.53;;
32786;SDS011;19139;49.372;8.580;2023-04-03T11:40:08;2.47;;;1.17;;
32786;SDS011;19139;49.372;8.580;2023-04-03T11:42:54;3.27;;;1.30;;
32786;SDS011;19139;49.372;8.580;2023-04-03T11:51:46;3.63;;;1.20;;
32786;SDS011;19139;49.372;8.580;2023-04-03T11:53:48;2.63;;;1.17;;
32786;SDS011;19139;49.372;8.580;2023-04-03T11:59:25;2.47;;;1.30;;
32786;SDS011;19139;49.372;8.580;2023-04-03T12:01:49;6.40;;;1.97;;
32786;SDS011;19139;49.372;8.580;2023-04-03T12:04:25;12.57;;;2.30;;
32786;SDS011;19139;49.372;8.580;2023-04-03T12:06:58;5.40;;;1.73;;
32786;SDS011;19139;49.372;8.580;2023-04-03T12:09:28;4.93;;;1.50;;
32786;SDS011;19139;49.372;8.580;2023-04-03T12:21:15;9.83;;;4.03;;
32786;SDS011;19139;49.372;8.580;2023-04-03T12:24:00;15.83;;;3.43;;
32786;SDS011;19139;49.372;8.580;2023-04-03T12:30:23;18.53;;;5.27;;
32786;SDS011;19139;49.372;8.580;2023-04-03T12:33:00;11.47;;;4.00;;
32786;SDS011;19139;49.372;8.580;2023-04-03T12:46:26;14.13;;;4.47;;
32786;SDS011;19139;49.372;8.580;2023-04-03T12:52:02;14.97;;;6.10;;
32786;SDS011;19139;49.372;8.580;2023-04-03T12:54:36;15.23;;;5.27;;
32786;SDS011;19139;49.372;8.580;2023-04-03T12:59:41;14.87;;;4.70;;
32786;SDS011;19139;49.372;8.580;2023-04-03T13:04:51;12.23;;;4.80;;
32786;SDS011;19139;49.372;8.580;2023-04-03T13:34:51;14.73;;;4.93;;
32786;SDS011;19139;49.372;8.580;2023-04-03T13:37:22;14.53;;;4.13;;
32786;SDS011;19139;49.372;8.580;2023-04-03T13:42:32;11.23;;;4.17;;
32786;SDS011;19139;49.372;8.580;2023-04-03T13:45:52;11.47;;;3.87;;
32786;SDS011;19139;49.372;8.580;2023-04-03T13:48:16;10.60;;;4.47;;
32786;SDS011;19139;49.372;8.580;2023-04-03T13:51:32;11.40;;;3.47;;
32786;SDS011;19139;49.372;8.580;2023-04-03T13:56:33;10.33;;;4.03;;
32786;SDS011;19139;49.372;8.580;2023-04-03T14:01:44;10.03;;;3.13;;
32786;SDS011;19139;49.372;8.580;2023-04-03T14:04:17;10.07;;;3.20;;
32786;SDS011;19139;49.372;8.580;2023-04-03T14:06:50;8.50;;;3.60;;
32786;SDS011;19139;49.372;8.580;2023-04-03T14:09:18;7.03;;;2.00;;
32786;SDS011;19139;49.372;8.580;2023-04-03T14:11:47;7.57;;;2.80;;
32786;SDS011;19139;49.372;8.580;2023-04-03T14:14:17;7.23;;;2.20;;
32786;SDS011;19139;49.372;8.580;2023-04-03T14:16:51;9.77;;;2.80;;
32786;SDS011;19139;49.372;8.580;2023-04-03T14:19:25;6.53;;;2.33;;
32786;SDS011;19139;49.372;8.580;2023-04-03T14:21:54;5.53;;;2.10;;
32786;SDS011;19139;49.372;8.580;2023-04-03T14:24:22;4.43;;;2.27;;
32786;SDS011;19139;49.372;8.580;2023-04-03T14:26:54;3.27;;;2.20;;
32786;SDS011;19139;49.372;8.580;2023-04-03T14:29:21;3.53;;;1.80;;
32786;SDS011;19139;49.372;8.580;2023-04-03T14:31:53;6.37;;;2.40;;
32786;SDS011;19139;49.372;8.580;2023-04-03T14:34:24;7.13;;;2.10;;
32786;SDS011;19139;49.372;8.580;2023-04-03T14:36:56;4.77;;;2.73;;
32786;SDS011;19139;49.372;8.580;2023-04-03T14:39:27;5.20;;;2.17;;
32786;SDS011;19139;49.372;8.580;2023-04-03T14:41:59;4.20;;;2.10;;
32786;SDS011;19139;49.372;8.580;2023-04-03T14:44:30;4.03;;;1.90;;
32786;SDS011;19139;49.372;8.580;2023-04-03T14:46:57;3.20;;;1.50;;
32786;SDS011;19139;49.372;8.580;2023-04-03T14:49:25;5.27;;;2.33;;
32786;SDS011;19139;49.372;8.580;2023-04-03T14:51:55;5.50;;;1.40;;
32786;SDS011;19139;49.372;8.580;2023-04-03T14:54:28;2.70;;;1.40;;
32786;SDS011;19139;49.372;8.580;2023-04-03T14:57:00;5.30;;;1.60;;
32786;SDS011;19139;49.372;8.580;2023-04-03T14:59:28;4.60;;;2.33;;
32786;SDS011;19139;49.372;8.580;2023-04-03T15:01:56;2.70;;;1.90;;
32786;SDS011;19139;49.372;8.580;2023-04-03T15:04:23;4.50;;;2.03;;
32786;SDS011;19139;49.372;8.580;2023-04-03T15:06:51;3.23;;;1.20;;
32786;SDS011;19139;49.372;8.580;2023-04-03T15:11:53;1.90;;;1.30;;
32786;SDS011;19139;49.372;8.580;2023-04-03T15:14:21;2.23;;;1.20;;
32786;SDS011;19139;49.372;8.580;2023-04-03T15:16:53;3.17;;;1.63;;
32786;SDS011;19139;49.372;8.580;2023-04-03T15:19:19;3.00;;;1.47;;
32786;SDS011;19139;49.372;8.580;2023-04-03T15:21:46;2.33;;;1.27;;
32786;SDS011;19139;49.372;8.580;2023-04-03T15:24:12;1.63;;;0.97;;
32786;SDS011;19139;49.372;8.580;2023-04-03T15:26:39;2.50;;;1.70;;
32786;SDS011;19139;49.372;8.580;2023-04-03T15:29:06;3.63;;;1.60;;
32786;SDS011;19139;49.372;8.580;2023-04-03T15:31:32;2.73;;;1.30;;
32786;SDS011;19139;49.372;8.580;2023-04-03T15:33:59;3.60;;;1.50;;
32786;SDS011;19139;49.372;8.580;2023-04-03T15:36:26;2.57;;;1.30;;
32786;SDS011;19139;49.372;8.580;2023-04-03T15:39:00;2.10;;;1.07;;
32786;SDS011;19139;49.372;8.580;2023-04-03T15:41:26;3.17;;;2.23;;
32786;SDS011;19139;49.372;8.580;2023-04-03T15:43:58;2.83;;;1.53;;
32786;SDS011;19139;49.372;8.580;2023-04-03T15:46:29;3.63;;;1.23;;
32786;SDS011;19139;49.372;8.580;2023-04-03T15:48:56;4.23;;;1.50;;
32786;SDS011;19139;49.372;8.580;2023-04-03T15:51:22;3.67;;;1.37;;
32786;SDS011;19139;49.372;8.580;2023-04-03T15:53:54;3.73;;;1.53;;
32786;SDS011;19139;49.372;8.580;2023-04-03T15:56:20;3.60;;;1.53;;
32786;SDS011;19139;49.372;8.580;2023-04-03T15:58:47;2.17;;;1.40;;
32786;SDS011;19139;49.372;8.580;2023-04-03T16:01:18;2.23;;;1.33;;
32786;SDS011;19139;49.372;8.580;2023-04-03T16:03:50;2.60;;;1.33;;
32786;SDS011;19139;49.372;8.580;2023-04-03T16:06:17;3.40;;;1.70;;
32786;SDS011;19139;49.372;8.580;2023-04-03T16:08:49;3.17;;;1.50;;
32786;SDS011;19139;49.372;8.580;2023-04-03T16:11:21;3.20;;;2.00;;
32786;SDS011;19139;49.372;8.580;2023-04-03T16:13:53;3.63;;;1.60;;
32786;SDS011;19139;49.372;8.580;2023-04-03T16:16:20;2.43;;;1.30;;
32786;SDS011;19139;49.372;8.580;2023-04-03T16:18:49;3.33;;;1.70;;
32786;SDS011;19139;49.372;8.580;2023-04-03T16:21:21;2.63;;;1.57;;
32786;SDS011;19139;49.372;8.580;2023-04-03T16:23:48;3.90;;;1.60;;
32786;SDS011;19139;49.372;8.580;2023-04-03T16:26:20;2.37;;;1.60;;
32786;SDS011;19139;49.372;8.580;2023-04-03T16:28:52;2.87;;;1.93;;
32786;SDS011;19139;49.372;8.580;2023-04-03T16:31:19;2.27;;;1.60;;
32786;SDS011;19139;49.372;8.580;2023-04-03T16:33:52;3.03;;;2.17;;
32786;SDS011;19139;49.372;8.580;2023-04-03T16:36:20;2.37;;;1.97;;
32786;SDS011;19139;49.372;8.580;2023-04-03T16:38:51;3.47;;;1.63;;
32786;SDS011;19139;49.372;8.580;2023-04-03T16:41:23;2.30;;;1.57;;
32786;SDS011;19139;49.372;8.580;2023-04-03T16:43:49;2.97;;;1.90;;
32786;SDS011;19139;49.372;8.580;2023-04-03T16:46:16;2.17;;;1.60;;
32786;SDS011;19139;49.372;8.580;2023-04-03T16:48:43;3.27;;;1.70;;
32786;SDS011;19139;49.372;8.580;2023-04-03T16:51:09;2.83;;;1.80;;
32786;SDS011;19139;49.372;8.580;2023-04-03T16:53:38;2.90;;;2.13;;
32786;SDS011;19139;49.372;8.580;2023-04-03T16:56:05;2.80;;;1.60;;
32786;SDS011;19139;49.372;8.580;2023-04-03T16:58:36;4.33;;;1.80;;
32786;SDS011;19139;49.372;8.580;2023-04-03T17:01:13;3.10;;;1.67;;
32786;SDS011;19139;49.372;8.580;2023-04-03T17:03:47;3.03;;;1.70;;
32786;SDS011;19139;49.372;8.580;2023-04-03T17:06:17;2.27;;;1.60;;
32786;SDS011;19139;49.372;8.580;2023-04-03T17:08:51;3.90;;;1.40;;
32786;SDS011;19139;49.372;8.580;2023-04-03T17:11:23;2.63;;;1.60;;
32786;SDS011;19139;49.372;8.580;2023-04-03T17:13:54;3.13;;;1.33;;
32786;SDS011;19139;49.372;8.580;2023-04-03T17:16:21;2.17;;;1.40;;
32786;SDS011;19139;49.372;8.580;2023-04-03T17:18:49;2.13;;;1.13;;
32786;SDS011;19139;49.372;8.580;2023-04-03T17:21:18;1.93;;;1.30;;
32786;SDS011;19139;49.372;8.580;2023-04-03T17:23:49;3.43;;;1.70;;